Metar Cercanos

 

LEPA - Palma De Mallorc, Spain
Distance from station: ONO 38km
Actualización: 26/04/2017 07:30
Muy nuboso
Muy nuboso
 Viento del NNE
Viento: NNE 2 km/h
Temperatura: 15°C
Rocío: 14°C
Humedad: 94%
Barómetro: 1006 hPa
Clouds: Muy nuboso
Visibility: 10 km
Cloud details: Parcialmente nuboso 274 m
Muy nuboso 457 m
2017/04/26 05:30 LEPA 260530Z 02001KT 9999 SCT009 BKN015 15/14 Q1006 NOSIG
LEMH - Mahon/Menorca Is, Spain
Distance from station: ENE 105km
Actualización: 26/04/2017 07:30
Parcialmente nuboso
Parcialmente nuboso
 Viento del SSO
Viento: SSO 7 km/h
Temperatura: 15°C
Rocío: 14°C
Humedad: 94%
Barómetro: 1006 hPa
Clouds: Parcialmente nuboso
Visibility: 8 km
Cloud details: Parcialmente nuboso 183 m
2017/04/26 05:30 LEMH 260530Z 21004KT 190V250 8000 SCT006 15/14 Q1006
 
LEIB - Ibiza/Es Codola, Spain
Distance from station: OSO 165km
Actualización: 26/04/2017 07:30
Muy nuboso
Muy nuboso
 Viento del SO
Viento: SO 13 km/h
Temperatura: 17°C
Rocío: 15°C
Humedad: 88%
Barómetro: 1006 hPa
Clouds: Muy nuboso
Visibility: 9 km
Cloud details: Muy nuboso 244 m
2017/04/26 05:30 LEIB 260530Z 23007KT 9000 BKN008 17/15 Q1006 NOSIG
LEBL - Barcelona Airpor, Spain
Distance from station: NNO 225km
Actualización: 26/04/2017 07:30
Muy nuboso
Muy nuboso
 Viento del E
Viento: E 9 km/h
Temperatura: 16°C
Rocío: 15°C
Humedad: 94%
Barómetro: 1006 hPa
Clouds: Muy nuboso
Visibility: 7 km
Cloud details: Few Clouds 152 m
Parcialmente nuboso 457 m
Muy nuboso 671 m
2017/04/26 05:30 LEBL 260530Z 08005KT 7000 FEW005 SCT015 BKN022 16/15 Q1006 NOSIG
 
LEVC - Valencia (civ/Mi, Spain
Distance from station: NO 188km
Actualización: 26/04/2017 07:30
Despejado
Despejado
 Viento del varies
Viento: varies 2 km/h
Temperatura: 15°C
Rocío: 15°C
Humedad: 100%
Barómetro: 1005 hPa
Resumen: Despejado
Visibility: greater than 10 km
2017/04/26 05:30 LEVC 260530Z VRB01KT CAVOK 15/15 Q1005 NOSIG
LEGE - Gerona/Costa Bra, Spain
Distance from station: N 276km
Actualización: 26/04/2017 07:30
Muy nuboso
Muy nuboso
 Viento del varies
Viento: varies 4 km/h
Temperatura: 12°C
Rocío: 10°C
Humedad: 88%
Barómetro: 1006 hPa
Clouds: Muy nuboso
Visibility: 10 km
Cloud details: Muy nuboso 579 m
Muy nuboso 1524 m
2017/04/26 05:30 LEGE 260530Z VRB02KT 9999 BKN019 BKN050 12/10 Q1006
 
LEAL - Alicante/El Alte, Spain
Distance from station: OSO 344km
Actualización: 26/04/2017 07:30
Despejado
Despejado
 Viento del O
Viento: O 7 km/h
Temperatura: 13°C
Rocío: 10°C
Humedad: 82%
Barómetro: 1006 hPa
Resumen: Despejado
Visibility: greater than 10 km
2017/04/26 05:30 LEAL 260530Z 26004KT CAVOK 13/10 Q1006 NOSIG
LEAM - Almeria Airport, Spain
Distance from station: SSO 56km
Actualización: 26/04/2017 07:30
Few Clouds
Few Clouds
 Viento del varies
Viento: varies 4 km/h
Temperatura: 16°C
Rocío: 14°C
Humedad: 88%
Barómetro: 1006 hPa
Clouds: Few Clouds
Visibility: 8 km
Cloud details: Few Clouds 305 m
2017/04/26 05:30 LEAM 260530Z VRB02KT 8000 FEW010 16/14 Q1006
 
LEZG - Zaragoza (mil/Ci, Spain
Distance from station: NO 431km
Actualización: 26/04/2017 07:30
Parcialmente nuboso
Parcialmente nuboso
 Viento del ONO
Viento: ONO 26 km/h
Temperatura: 10°C
Sensación frio: 7°C
Rocío: 9°C
Humedad: 94%
Barómetro: 1008 hPa
Clouds: Parcialmente nuboso
Visibility: 10 km
Cloud details: Few Clouds 914 m
Parcialmente nuboso 2591 m
2017/04/26 05:30 LEZG 260530Z 29014KT 9999 FEW030 SCT085 10/09 Q1008
LEMD - Madrid/Barajas, Spain
Distance from station: ONO 234km
Actualización: 26/04/2017 07:30
Parcialmente nuboso
Parcialmente nuboso
 Viento del O
Viento: O 9 km/h
Temperatura: 13°C
Rocío: 5°C
Humedad: 59%
Barómetro: 1006 hPa
Clouds: Parcialmente nuboso
Visibility: 10 km
Cloud details: Parcialmente nuboso 1524 m
2017/04/26 05:30 LEMD 260530Z 27005KT 230V330 9999 SCT050 13/05 Q1006 NOSIG
 
LEGR - Granada Airport, Spain
Distance from station: OSO 62km
Actualización: 26/04/2017 07:30
Parcialmente nuboso
Parcialmente nuboso
 Viento del varies
Viento: varies 2 km/h
Temperatura: 10°C
Rocío: 8°C
Humedad: 88%
Barómetro: 1010 hPa
Clouds: Parcialmente nuboso
Visibility: 10 km
Cloud details: Few Clouds 610 m
Parcialmente nuboso 1524 m
2017/04/26 05:30 LEGR 260530Z VRB01KT 9999 FEW020 SCT050 10/08 Q1010
LEMG - Malaga (civ/Mil), Spain
Distance from station: OSO 227km
Actualización: 26/04/2017 07:30
Despejado
Despejado
 Viento del ONO
Viento: ONO 13 km/h
Temperatura: 13°C
Rocío: 10°C
Humedad: 82%
Barómetro: 1008 hPa
Resumen: Despejado
Visibility: greater than 10 km
2017/04/26 05:30 LEMG 260530Z 30007KT CAVOK 13/10 Q1008 NOSIG
 
LEZL - Sevilla (civ/Mil, Spain
Distance from station: S 318km
Actualización: 26/04/2017 07:30
Parcialmente nuboso
Parcialmente nuboso
 Viento del varies
Viento: varies 2 km/h
Temperatura: 14°C
Rocío: 13°C
Humedad: 94%
Barómetro: 1009 hPa
Clouds: Parcialmente nuboso
Visibility: 8 km
2017/04/26 05:30 LEZL 260530Z VRB01KT 8000 NSC 14/13 Q1009 NOSIG
LEVT - Vitoria, Spain
Distance from station: NO 226km
Actualización: 26/04/2017 07:30
Lluvia débil, Cubierto
Lluvia débil, Cubierto
 Viento del N
Viento: N 6 km/h
Temperatura: 5°C
Rocío: 3°C
Humedad: 87%
Barómetro: 1012 hPa
Resumen: Lluvia débil
Clouds: Cubierto
Visibility: 10 km
Cloud details: Muy nuboso 488 m
Cubierto 2134 m
2017/04/26 05:30 LEVT 260530Z 35003KT 320V050 9999 -RA BKN016 OVC070 05/03 Q1012
 
LEBB - Bilbao/Sondica, Spain
Distance from station: NNO 235km
Actualización: 26/04/2017 07:30
Lluvia débil, Muy nuboso
Lluvia débil, Muy nuboso
 Viento del calm
Viento: Calma
Temperatura: 8°C
Rocío: 7°C
Humedad: 93%
Barómetro: 1014 hPa
Resumen: Lluvia débil
Clouds: Muy nuboso
Visibility: 10 km
Cloud details: Parcialmente nuboso 1067 m
Muy nuboso 1676 m
2017/04/26 05:30 LEBB 260530Z 00000KT 9999 -RA SCT035 BKN055 08/07 Q1014 TEMPO 3000 RA
LESO - San Sebastian/Fu, Spain
Distance from station: N 231km
Actualización: 26/04/2017 07:30
Lluvia débil, Muy nuboso
Lluvia débil, Muy nuboso
 Viento del varies
Viento: varies 4 km/h
Temperatura: 9°C
Rocío: 7°C
Humedad: 87%
Barómetro: 1013 hPa
Resumen: Lluvia débil
Clouds: Muy nuboso
Visibility: 9 km
Cloud details: Parcialmente nuboso 427 m
Muy nuboso 914 m
2017/04/26 05:30 LESO 260530Z VRB02KT 9000 -RA SCT014 BKN030 09/07 Q1013
 
LEVD - Valladolid(Mil/C, Spain
Distance from station: ONO 239km
Actualización: 26/04/2017 07:30
Muy nuboso
Muy nuboso
 Viento del NE
Viento: NE 20 km/h
Temperatura: 4°C
Sensación frio: -1°C
Rocío: 1°C
Humedad: 81%
Barómetro: 1010 hPa
Clouds: Muy nuboso
Visibility: 10 km
Cloud details: Muy nuboso 1158 m
2017/04/26 05:30 LEVD 260530Z 05011KT 020V080 9999 BKN038 04/01 Q1010
LESA - Salamanca (civ/M, Spain
Distance from station: ONO 349km
Actualización: 26/04/2017 07:30
Cubierto
Cubierto
 Viento del varies
Viento: varies 4 km/h
Temperatura: 7°C
Rocío: 5°C
Humedad: 87%
Barómetro: 1009 hPa
Clouds: Cubierto
Visibility: 10 km
Cloud details: Cubierto 427 m
2017/04/26 05:30 LESA 260530Z VRB02KT 9999 OVC014 07/05 Q1009
 
LEXJ - Santander/Paraya, Spain
Distance from station: NNO 247km
Actualización: 26/04/2017 07:30
Lluvia débil, Cubierto
Lluvia débil, Cubierto
 Viento del SSO
Viento: SSO 2 km/h
Temperatura: 8°C
Rocío: 6°C
Humedad: 87%
Barómetro: 1014 hPa
Resumen: Lluvia débil
Clouds: Cubierto
Visibility: 10 km
Cloud details: Few Clouds 244 m
Muy nuboso 366 m
Cubierto 1219 m
2017/04/26 05:30 LEXJ 260530Z 21001KT 9999 -RA FEW008 BKN012 OVC040 08/06 Q1014
LEAS - Asturias/Aviles, Spain
Distance from station: NO 214km
Actualización: 26/04/2017 07:30
Muy nuboso
Muy nuboso
 Viento del SO
Viento: SO 11 km/h
Temperatura: 6°C
Sensación frio: 4°C
Rocío: 5°C
Humedad: 93%
Barómetro: 1015 hPa
Clouds: Muy nuboso
Visibility: 8 km
Cloud details: Few Clouds 914 m
Muy nuboso 1524 m
2017/04/26 05:30 LEAS 260530Z 22006KT 190V250 8000 FEW030 BKN050 06/05 Q1015 TEMPO 3000 RA
 
LECO - La Coruna/Alvedr, Spain
Distance from station: ONO 222km
Actualización: 26/04/2017 07:30
Few Clouds
Few Clouds
 Viento del varies
Viento: varies 2 km/h
Temperatura: 6°C
Rocío: 3°C
Humedad: 81%
Barómetro: 1017 hPa
Clouds: Few Clouds
Visibility: 10 km
Cloud details: Few Clouds 579 m
2017/04/26 05:30 LECO 260530Z VRB01KT 9999 FEW019 06/03 Q1017 TEMPO SHRA SCT025TCU
LEVX - Vigo/Peinador, Spain
Distance from station: O 214km
Actualización: 26/04/2017 07:30
Few Clouds
Few Clouds
 Viento del NNE
Viento: NNE 26 km/h
Temperatura: 7°C
Sensación frio: 3°C
Rocío: 2°C
Humedad: 71%
Barómetro: 1014 hPa
Clouds: Few Clouds
Visibility: 10 km
Cloud details: Few Clouds 610 m
2017/04/26 05:30 LEVX 260530Z 02014KT 350V060 9999 FEW020 07/02 Q1014 NOSIG